createdAt,value
2023-01-05T00:01:40.985Z,100.00
2023-01-05T00:04:09.689Z,100.00
2023-01-05T00:06:37.529Z,100.00
2023-01-05T00:09:05.719Z,100.00
2023-01-05T00:11:52.266Z,100.00
2023-01-05T00:14:42.682Z,100.00
2023-01-05T00:17:34.205Z,100.00
2023-01-05T00:20:20.287Z,100.00
2023-01-05T00:22:49.183Z,100.00
2023-01-05T00:25:18.602Z,100.00
2023-01-05T00:27:48.487Z,100.00
2023-01-05T00:30:17.813Z,100.00
2023-01-05T00:32:46.564Z,100.00
2023-01-05T00:35:15.573Z,100.00
2023-01-05T00:37:43.716Z,100.00
2023-01-05T00:40:12.729Z,100.00
2023-01-05T00:42:40.444Z,100.00
2023-01-05T00:45:10.745Z,100.00
2023-01-05T00:47:38.626Z,100.00
2023-01-05T00:50:08.120Z,100.00
2023-01-05T00:52:36.198Z,100.00
2023-01-05T00:55:10.105Z,100.00
2023-01-05T00:57:38.182Z,100.00
2023-01-05T01:00:07.535Z,100.00
2023-01-05T01:02:35.494Z,100.00
2023-01-05T01:05:04.732Z,100.00
2023-01-05T01:07:32.215Z,100.00
2023-01-05T01:10:02.519Z,100.00
2023-01-05T01:12:30.626Z,100.00
2023-01-05T01:14:58.147Z,100.00
2023-01-05T01:17:26.237Z,100.00
2023-01-05T01:19:53.619Z,100.00
2023-01-05T01:22:21.223Z,100.00
2023-01-05T01:24:48.699Z,100.00
2023-01-05T01:27:16.184Z,100.00
2023-01-05T01:29:44.276Z,100.00
2023-01-05T01:32:11.889Z,100.00
2023-01-05T01:34:39.972Z,100.00
2023-01-05T01:37:07.407Z,100.00
2023-01-05T01:39:40.480Z,100.00
2023-01-05T01:42:14.177Z,100.00
2023-01-05T01:44:54.083Z,100.00
2023-01-05T01:47:29.188Z,100.00
2023-01-05T01:49:58.399Z,100.00
2023-01-05T01:52:27.779Z,100.00
2023-01-05T01:54:56.264Z,100.00
2023-01-05T01:57:26.839Z,100.00
2023-01-05T01:59:54.999Z,100.00
2023-01-05T02:02:23.242Z,100.00
2023-01-05T02:04:51.502Z,100.00
2023-01-05T02:07:19.528Z,100.00
2023-01-05T02:09:47.716Z,100.00
2023-01-05T02:12:22.897Z,100.00
2023-01-05T02:15:00.222Z,100.00
2023-01-05T02:17:36.893Z,100.00
2023-01-05T02:20:22.234Z,100.00
2023-01-05T02:23:03.098Z,100.00
2023-01-05T02:25:45.938Z,100.00
2023-01-05T02:28:43.367Z,100.00
2023-01-05T02:31:15.259Z,100.00
2023-01-05T02:33:55.727Z,100.00
2023-01-05T02:36:37.025Z,100.00
2023-01-05T02:39:12.208Z,100.00
2023-01-05T02:41:45.378Z,100.00
2023-01-05T02:44:18.495Z,100.00
2023-01-05T02:47:00.112Z,100.00
2023-01-05T02:49:29.751Z,100.00
2023-01-05T02:52:00.218Z,100.00
2023-01-05T02:54:34.132Z,100.00
2023-01-05T02:57:09.310Z,100.00
2023-01-05T02:59:40.538Z,100.00
2023-01-05T03:02:13.540Z,100.00
2023-01-05T03:04:47.749Z,100.00
2023-01-05T03:07:18.736Z,100.00
2023-01-05T03:09:52.389Z,100.00
2023-01-05T03:12:41.680Z,100.00
2023-01-05T03:15:11.358Z,100.00
2023-01-05T03:17:44.554Z,100.00
2023-01-05T03:20:14.765Z,100.00
2023-01-05T03:23:03.644Z,100.00
2023-01-05T03:25:52.039Z,100.00
2023-01-05T03:29:04.473Z,100.00
2023-01-05T03:32:13.393Z,100.00
2023-01-05T03:35:18.358Z,100.00
2023-01-05T03:38:07.363Z,100.00
2023-01-05T03:40:37.259Z,100.00
2023-01-05T03:43:05.828Z,100.00
2023-01-05T03:45:42.622Z,100.00
2023-01-05T03:48:15.010Z,100.00
2023-01-05T03:50:42.987Z,100.00
2023-01-05T03:53:17.553Z,100.00
2023-01-05T03:55:50.353Z,100.00
2023-01-05T03:58:18.488Z,100.00
2023-01-05T04:00:48.924Z,100.00
2023-01-05T04:03:20.060Z,100.00
2023-01-05T04:05:49.350Z,100.00
2023-01-05T04:08:17.664Z,100.00
2023-01-05T04:10:45.165Z,100.00
2023-01-05T04:13:14.732Z,100.00
2023-01-05T04:15:43.851Z,100.00
2023-01-05T04:18:13.000Z,100.00
2023-01-05T04:20:41.027Z,100.00
2023-01-05T04:23:09.428Z,100.00
2023-01-05T04:25:37.487Z,100.00
2023-01-05T04:28:16.201Z,100.00
2023-01-05T04:30:55.312Z,100.00
2023-01-05T04:33:25.070Z,100.00
2023-01-05T04:35:53.383Z,100.00
2023-01-05T04:38:21.878Z,100.00
2023-01-05T04:40:53.312Z,100.00
2023-01-05T04:43:24.606Z,100.00
2023-01-05T04:45:52.292Z,100.00
2023-01-05T04:48:20.871Z,100.00
2023-01-05T04:50:55.149Z,100.00
2023-01-05T04:53:30.648Z,100.00
2023-01-05T04:55:59.244Z,100.00
2023-01-05T04:58:32.711Z,100.00
2023-01-05T05:01:00.374Z,100.00
2023-01-05T05:03:33.115Z,100.00
2023-01-05T05:06:01.816Z,100.00
2023-01-05T05:08:30.582Z,100.00
2023-01-05T05:11:00.922Z,100.00
2023-01-05T05:13:31.396Z,100.00
2023-01-05T05:16:02.067Z,100.00
2023-01-05T05:18:31.752Z,100.00
2023-01-05T05:20:59.814Z,100.00
2023-01-05T05:23:31.637Z,100.00
2023-01-05T05:26:05.158Z,100.00
2023-01-05T05:28:34.377Z,100.00
2023-01-05T05:31:02.172Z,100.00
2023-01-05T05:33:29.662Z,100.00
2023-01-05T05:35:57.148Z,100.00
2023-01-05T05:38:24.588Z,100.00
2023-01-05T05:40:52.109Z,100.00
2023-01-05T05:43:19.526Z,100.00
2023-01-05T05:45:50.784Z,100.00
2023-01-05T05:48:19.099Z,100.00
2023-01-05T05:50:46.573Z,100.00
2023-01-05T05:53:16.968Z,100.00
2023-01-05T05:55:48.307Z,100.00
2023-01-05T05:58:15.894Z,100.00
2023-01-05T06:00:43.513Z,100.00
2023-01-05T06:03:11.169Z,100.00
2023-01-05T06:05:38.908Z,100.00
2023-01-05T06:08:06.473Z,100.00
2023-01-05T06:10:33.963Z,100.00
2023-01-05T06:13:02.280Z,100.00
2023-01-05T06:15:31.530Z,100.00
2023-01-05T06:18:00.130Z,100.00
2023-01-05T06:20:28.079Z,100.00
2023-01-05T06:22:56.071Z,100.00
2023-01-05T06:25:23.882Z,100.00
2023-01-05T06:27:51.753Z,100.00
2023-01-05T06:30:19.341Z,100.00
2023-01-05T06:32:46.756Z,100.00
2023-01-05T06:35:14.202Z,100.00
2023-01-05T06:37:41.774Z,100.00
2023-01-05T06:40:11.539Z,100.00
2023-01-05T06:42:39.691Z,100.00
2023-01-05T06:45:07.991Z,100.00
2023-01-05T06:47:36.844Z,100.00
2023-01-05T06:50:05.030Z,100.00
2023-01-05T06:52:37.108Z,100.00
2023-01-05T06:55:05.441Z,100.00
2023-01-05T06:57:39.256Z,100.00
2023-01-05T07:00:09.115Z,100.00
2023-01-05T07:02:37.059Z,100.00
2023-01-05T07:05:04.872Z,100.00
2023-01-05T07:07:32.493Z,100.00
2023-01-05T07:10:00.161Z,100.00
2023-01-05T07:12:28.266Z,100.00
2023-01-05T07:14:57.650Z,100.00
2023-01-05T07:17:26.029Z,100.00
2023-01-05T07:19:53.768Z,100.00
2023-01-05T07:22:21.961Z,100.00
2023-01-05T07:24:49.501Z,100.00
2023-01-05T07:27:16.920Z,100.00
2023-01-05T07:29:44.560Z,100.00
2023-01-05T07:32:11.992Z,100.00
2023-01-05T07:34:39.988Z,100.00
2023-01-05T07:37:07.661Z,100.00
2023-01-05T07:39:35.659Z,100.00
2023-01-05T07:42:03.267Z,100.00
2023-01-05T07:44:34.419Z,100.00
2023-01-05T07:47:02.436Z,100.00
2023-01-05T07:49:30.133Z,100.00
2023-01-05T07:51:57.485Z,100.00
2023-01-05T07:54:25.786Z,100.00
2023-01-05T07:56:53.159Z,100.00
2023-01-05T07:59:20.687Z,100.00
2023-01-05T08:01:49.068Z,100.00
2023-01-05T08:04:16.668Z,100.00
2023-01-05T08:06:44.135Z,100.00
2023-01-05T08:09:30.503Z,100.00
2023-01-05T08:11:57.972Z,100.00
2023-01-05T08:14:25.572Z,100.00
2023-01-05T08:16:53.216Z,100.00
2023-01-05T08:19:21.049Z,100.00
2023-01-05T08:21:49.170Z,100.00
2023-01-05T08:24:17.076Z,100.00
2023-01-05T08:26:44.904Z,100.00
2023-01-05T08:29:12.429Z,100.00
2023-01-05T08:31:39.842Z,100.00
2023-01-05T08:34:07.369Z,100.00
2023-01-05T08:36:35.050Z,100.00
2023-01-05T08:39:02.671Z,100.00
2023-01-05T08:41:35.815Z,100.00
2023-01-05T08:44:05.041Z,100.00
2023-01-05T08:46:34.794Z,100.00
2023-01-05T08:49:04.141Z,100.00
2023-01-05T08:51:32.509Z,100.00
2023-01-05T08:54:00.140Z,100.00
2023-01-05T08:56:31.742Z,100.00
2023-01-05T08:59:02.403Z,100.00
2023-01-05T09:01:31.079Z,100.00
2023-01-05T09:03:58.493Z,100.00
2023-01-05T09:06:26.311Z,100.00
2023-01-05T09:08:55.045Z,100.00
2023-01-05T09:11:23.467Z,100.00
2023-01-05T09:13:51.991Z,100.00
2023-01-05T09:19:14.171Z,100.00
2023-01-05T09:21:44.750Z,100.00
2023-01-05T09:24:13.014Z,100.00
2023-01-05T09:26:43.879Z,100.00
2023-01-05T09:29:13.274Z,100.00
2023-01-05T09:31:41.728Z,100.00
2023-01-05T09:34:10.232Z,100.00
2023-01-05T09:36:41.023Z,100.00
2023-01-05T09:39:08.809Z,100.00
2023-01-05T09:41:55.546Z,100.00
2023-01-05T09:44:29.767Z,100.00
2023-01-05T09:47:02.697Z,100.00
2023-01-05T09:49:32.004Z,100.00
2023-01-05T09:52:02.207Z,100.00
2023-01-05T09:54:33.174Z,100.00
2023-01-05T09:57:10.328Z,100.00
2023-01-05T09:59:41.457Z,100.00
2023-01-05T10:02:27.949Z,100.00
2023-01-05T10:04:55.670Z,100.00
2023-01-05T10:07:38.116Z,100.00
2023-01-05T10:10:09.218Z,100.00
2023-01-05T10:13:05.859Z,100.00
2023-01-05T10:15:40.452Z,100.00
2023-01-05T10:18:14.708Z,100.00
2023-01-05T10:20:52.282Z,100.00
2023-01-05T10:23:39.984Z,100.00
2023-01-05T10:26:10.713Z,100.00
2023-01-05T10:28:52.981Z,100.00
2023-01-05T10:31:43.651Z,100.00
2023-01-05T10:34:16.402Z,100.00
2023-01-05T10:39:43.319Z,100.00
2023-01-05T10:42:34.331Z,100.00
2023-01-05T10:45:03.670Z,100.00
2023-01-05T10:47:35.947Z,100.00
2023-01-05T10:50:04.541Z,100.00
2023-01-05T10:52:32.654Z,100.00
2023-01-05T10:55:01.077Z,100.00
2023-01-05T10:57:34.074Z,100.00
2023-01-05T11:00:06.878Z,100.00
2023-01-05T11:02:37.489Z,100.00
2023-01-05T11:05:05.116Z,100.00
2023-01-05T11:07:33.140Z,100.00
2023-01-05T11:10:01.196Z,100.00
2023-01-05T11:12:28.562Z,100.00
2023-01-05T11:14:58.970Z,100.00
2023-01-05T11:17:27.589Z,100.00
2023-01-05T11:19:57.150Z,100.00
2023-01-05T11:22:27.261Z,100.00
2023-01-05T11:24:54.686Z,100.00
2023-01-05T11:27:21.977Z,100.00
2023-01-05T11:30:08.553Z,100.00
2023-01-05T11:32:36.055Z,100.00
2023-01-05T11:35:03.450Z,100.00
2023-01-05T11:37:31.253Z,100.00
2023-01-05T11:39:59.999Z,100.00
2023-01-05T11:42:29.773Z,100.00
2023-01-05T11:44:58.478Z,100.00
2023-01-05T11:47:44.288Z,100.00
2023-01-05T11:50:17.341Z,100.00
2023-01-05T11:52:46.277Z,100.00
2023-01-05T11:55:19.708Z,100.00
2023-01-05T11:57:48.007Z,100.00
2023-01-05T12:00:31.962Z,100.00
2023-01-05T12:03:18.138Z,100.00
2023-01-05T12:05:54.787Z,100.00
2023-01-05T12:08:32.858Z,100.00
2023-01-05T12:11:05.957Z,100.00
2023-01-05T12:13:52.881Z,100.00
2023-01-05T12:16:32.214Z,100.00
2023-01-05T12:19:12.827Z,100.00
2023-01-05T12:22:02.410Z,100.00
2023-01-05T12:24:30.235Z,100.00
2023-01-05T12:27:13.453Z,100.00
2023-01-05T12:35:53.528Z,94.08
2023-01-05T12:38:27.321Z,95.02
2023-01-05T12:40:57.959Z,91.69
2023-01-05T12:43:43.982Z,86.85
2023-01-05T12:46:31.971Z,91.20
2023-01-05T12:49:05.795Z,94.99
2023-01-05T12:51:36.333Z,98.06
2023-01-05T12:54:08.064Z,94.60
2023-01-05T12:56:44.463Z,87.38
2023-01-05T12:59:20.774Z,83.10
2023-01-05T13:01:57.643Z,79.12
2023-01-05T13:04:27.428Z,80.07
2023-01-05T13:06:57.858Z,77.70
2023-01-05T13:09:28.031Z,75.27
2023-01-05T13:11:59.589Z,85.00
2023-01-05T13:14:31.444Z,83.73
2023-01-05T13:17:02.040Z,77.40
2023-01-05T13:19:38.606Z,68.28
2023-01-05T13:22:11.195Z,71.97
2023-01-05T13:24:44.266Z,73.58
2023-01-05T13:27:12.485Z,71.24
2023-01-05T13:29:41.863Z,68.30
2023-01-05T13:32:09.554Z,65.83
2023-01-05T13:34:59.405Z,66.82
2023-01-05T13:37:26.960Z,68.26
2023-01-05T13:39:54.267Z,66.81
2023-01-05T13:42:22.269Z,68.45
2023-01-05T13:44:58.973Z,75.22
2023-01-05T13:47:45.948Z,84.36
2023-01-05T13:50:33.820Z,91.03
2023-01-05T13:53:01.183Z,88.64
2023-01-05T13:55:30.198Z,76.16
2023-01-05T13:57:58.965Z,78.04
2023-01-05T14:00:29.219Z,89.13
2023-01-05T14:03:02.205Z,86.47
2023-01-05T14:05:31.993Z,85.52
2023-01-05T14:08:01.851Z,87.15
2023-01-05T14:10:31.215Z,76.78
2023-01-05T14:12:59.069Z,75.48
2023-01-05T14:15:32.433Z,71.33
2023-01-05T14:18:02.390Z,67.18
2023-01-05T14:20:34.583Z,65.84
2023-01-05T14:23:04.502Z,66.66
2023-01-05T14:25:40.892Z,65.60
2023-01-05T14:28:21.750Z,64.17
2023-01-05T14:30:53.339Z,59.95
2023-01-05T14:33:21.094Z,56.64
2023-01-05T14:35:48.603Z,57.85
2023-01-05T14:38:19.535Z,58.11
2023-01-05T14:40:52.929Z,59.76
2023-01-05T14:43:32.340Z,64.92
2023-01-05T14:46:22.150Z,79.23
2023-01-05T14:49:05.389Z,85.31
2023-01-05T14:51:34.540Z,90.96
2023-01-05T14:54:05.910Z,93.39
2023-01-05T14:56:34.656Z,99.80
2023-01-05T14:59:02.133Z,100.00
2023-01-05T15:01:32.688Z,100.00
2023-01-05T15:04:15.282Z,100.00
2023-01-05T15:07:02.166Z,100.00
2023-01-05T15:09:32.410Z,100.00
2023-01-05T15:12:18.788Z,100.00
2023-01-05T15:14:46.196Z,100.00
2023-01-05T15:17:19.895Z,100.00
2023-01-05T15:19:47.865Z,100.00
2023-01-05T15:22:37.272Z,100.00
2023-01-05T15:25:09.122Z,100.00
2023-01-05T15:27:37.022Z,100.00
2023-01-05T15:30:17.768Z,100.00
2023-01-05T15:32:46.323Z,100.00
2023-01-05T15:35:16.627Z,100.00
2023-01-05T15:37:47.221Z,100.00
2023-01-05T15:40:14.736Z,100.00
2023-01-05T15:42:46.707Z,100.00
2023-01-05T15:45:20.110Z,100.00
2023-01-05T15:47:47.939Z,100.00
2023-01-05T15:50:38.865Z,100.00
2023-01-05T15:53:06.503Z,100.00
2023-01-05T15:55:33.909Z,100.00
2023-01-05T15:58:08.327Z,100.00
2023-01-05T16:00:36.411Z,100.00
2023-01-05T16:03:20.434Z,100.00
2023-01-05T16:05:50.064Z,100.00
2023-01-05T16:08:18.030Z,100.00
2023-01-05T16:10:47.932Z,100.00
2023-01-05T16:13:17.088Z,100.00
2023-01-05T16:15:51.216Z,100.00
2023-01-05T16:18:22.475Z,100.00
2023-01-05T16:20:52.316Z,100.00
2023-01-05T16:23:34.469Z,100.00
2023-01-05T16:26:02.402Z,100.00
2023-01-05T16:28:30.201Z,100.00
2023-01-05T16:30:58.429Z,100.00
2023-01-05T16:33:35.283Z,100.00
2023-01-05T16:36:09.968Z,100.00
2023-01-05T16:38:37.806Z,100.00
2023-01-05T16:41:08.157Z,100.00
2023-01-05T16:43:38.346Z,100.00
2023-01-05T16:46:25.427Z,100.00
2023-01-05T16:48:54.760Z,100.00
2023-01-05T16:51:23.885Z,100.00
2023-01-05T16:53:57.244Z,100.00
2023-01-05T16:56:33.833Z,100.00
2023-01-05T16:59:02.404Z,100.00
2023-01-05T17:01:37.675Z,100.00
2023-01-05T17:04:12.540Z,100.00
2023-01-05T17:06:41.347Z,100.00
2023-01-05T17:09:18.960Z,100.00
2023-01-05T17:11:46.296Z,100.00
2023-01-05T17:14:14.764Z,100.00
2023-01-05T17:16:42.300Z,100.00
2023-01-05T17:19:12.785Z,100.00
2023-01-05T17:21:41.127Z,100.00
2023-01-05T17:24:11.268Z,100.00
2023-01-05T17:26:41.189Z,100.00
2023-01-05T17:29:22.042Z,100.00
2023-01-05T17:31:50.615Z,100.00
2023-01-05T17:34:18.512Z,100.00
2023-01-05T17:36:47.559Z,100.00
2023-01-05T17:39:16.182Z,100.00
2023-01-05T17:41:43.808Z,100.00
2023-01-05T17:44:11.243Z,100.00
2023-01-05T17:46:43.420Z,100.00
2023-01-05T17:49:15.831Z,100.00
2023-01-05T17:52:18.580Z,100.00
2023-01-05T17:54:46.366Z,100.00
2023-01-05T17:57:13.752Z,100.00
2023-01-05T18:02:14.646Z,100.00
2023-01-05T18:04:42.422Z,100.00
2023-01-05T18:07:09.944Z,100.00
2023-01-05T18:09:38.197Z,100.00
2023-01-05T18:12:05.711Z,100.00
2023-01-05T18:14:33.068Z,100.00
2023-01-05T18:17:00.929Z,100.00
2023-01-05T18:19:31.538Z,100.00
2023-01-05T18:22:00.192Z,100.00
2023-01-05T18:24:28.255Z,100.00
2023-01-05T18:26:56.239Z,100.00
2023-01-05T18:29:24.078Z,100.00
2023-01-05T18:31:52.703Z,100.00
2023-01-05T18:34:20.348Z,100.00
2023-01-05T18:36:52.469Z,100.00
2023-01-05T18:39:26.513Z,100.00
2023-01-05T18:41:54.748Z,100.00
2023-01-05T18:44:22.611Z,100.00
2023-01-05T18:46:52.167Z,100.00
2023-01-05T18:49:19.652Z,100.00
2023-01-05T18:51:50.215Z,100.00
2023-01-05T18:54:18.507Z,100.00
2023-01-05T18:56:45.859Z,100.00
2023-01-05T18:59:13.993Z,100.00
2023-01-05T19:01:43.171Z,100.00
2023-01-05T19:04:11.192Z,100.00
2023-01-05T19:06:39.855Z,100.00
2023-01-05T19:09:09.101Z,100.00
2023-01-05T19:11:37.525Z,100.00
2023-01-05T19:14:05.641Z,100.00
2023-01-05T19:16:35.203Z,100.00
2023-01-05T19:19:08.394Z,100.00
2023-01-05T19:21:37.139Z,100.00
2023-01-05T19:24:05.312Z,100.00
2023-01-05T19:26:33.890Z,100.00
2023-01-05T19:29:02.248Z,100.00
2023-01-05T19:31:30.392Z,100.00
2023-01-05T19:34:01.789Z,100.00
2023-01-05T19:36:35.551Z,100.00
2023-01-05T19:39:07.608Z,100.00
2023-01-05T19:41:35.992Z,100.00
2023-01-05T19:44:03.737Z,100.00
2023-01-05T19:46:31.580Z,100.00
2023-01-05T19:49:01.041Z,100.00
2023-01-05T19:51:29.863Z,100.00
2023-01-05T19:53:58.801Z,100.00
2023-01-05T19:56:28.038Z,100.00
2023-01-05T19:58:59.279Z,100.00
2023-01-05T20:01:28.133Z,100.00
2023-01-05T20:03:56.043Z,100.00
2023-01-05T20:06:25.006Z,100.00
2023-01-05T20:08:53.168Z,100.00
2023-01-05T20:11:35.723Z,100.00
2023-01-05T20:14:22.133Z,100.00
2023-01-05T20:16:57.095Z,100.00
2023-01-05T20:19:28.853Z,100.00
2023-01-05T20:21:57.557Z,100.00
2023-01-05T20:24:26.356Z,100.00
2023-01-05T20:26:55.905Z,100.00
2023-01-05T20:29:24.908Z,100.00
2023-01-05T20:32:06.315Z,100.00
2023-01-05T20:34:36.476Z,100.00
2023-01-05T20:37:04.762Z,100.00
2023-01-05T20:39:32.605Z,100.00
2023-01-05T20:42:04.750Z,100.00
2023-01-05T20:44:33.807Z,100.00
2023-01-05T20:47:03.103Z,100.00
2023-01-05T20:49:31.100Z,100.00
2023-01-05T20:51:58.969Z,100.00
2023-01-05T20:54:26.913Z,100.00
2023-01-05T20:56:54.348Z,100.00
2023-01-05T20:59:27.525Z,100.00
2023-01-05T21:01:55.506Z,100.00
2023-01-05T21:04:24.000Z,100.00
2023-01-05T21:06:54.412Z,100.00
2023-01-05T21:09:22.915Z,100.00
2023-01-05T21:11:50.638Z,100.00
2023-01-05T21:14:19.750Z,100.00
2023-01-05T21:16:48.718Z,100.00
2023-01-05T21:19:22.380Z,100.00
2023-01-05T21:21:51.368Z,100.00
2023-01-05T21:24:19.008Z,100.00
2023-01-05T21:26:46.365Z,100.00
2023-01-05T21:29:15.269Z,100.00
2023-01-05T21:31:42.998Z,100.00
2023-01-05T21:34:11.803Z,100.00
2023-01-05T21:36:41.751Z,100.00
2023-01-05T21:39:11.432Z,100.00
2023-01-05T21:41:59.325Z,100.00
2023-01-05T21:44:27.400Z,100.00
2023-01-05T21:46:54.766Z,100.00
2023-01-05T21:49:22.098Z,100.00
2023-01-05T21:52:08.515Z,100.00
2023-01-05T21:54:55.303Z,100.00
2023-01-05T21:57:26.904Z,100.00
2023-01-05T21:59:55.134Z,100.00
2023-01-05T22:02:22.514Z,100.00
2023-01-05T22:04:50.538Z,100.00
2023-01-05T22:07:17.963Z,100.00
2023-01-05T22:09:45.327Z,100.00
2023-01-05T22:12:13.206Z,100.00
2023-01-05T22:14:40.743Z,100.00
2023-01-05T22:17:09.018Z,100.00
2023-01-05T22:19:36.912Z,100.00
2023-01-05T22:22:04.667Z,100.00
2023-01-05T22:24:32.524Z,100.00
2023-01-05T22:27:01.697Z,100.00
2023-01-05T22:29:30.080Z,100.00
2023-01-05T22:31:58.785Z,100.00
2023-01-05T22:34:27.784Z,100.00
2023-01-05T22:36:55.206Z,100.00
2023-01-05T22:39:22.868Z,100.00
2023-01-05T22:41:50.747Z,100.00
2023-01-05T22:44:18.637Z,100.00
2023-01-05T22:46:46.352Z,100.00
2023-01-05T22:49:14.339Z,100.00
2023-01-05T22:51:41.939Z,100.00
2023-01-05T22:54:10.104Z,100.00
2023-01-05T22:56:37.493Z,100.00
2023-01-05T22:59:05.499Z,100.00
2023-01-05T23:01:35.951Z,100.00
2023-01-05T23:04:05.087Z,100.00
2023-01-05T23:06:33.409Z,100.00
2023-01-05T23:09:01.787Z,100.00
2023-01-05T23:11:30.675Z,100.00
2023-01-05T23:13:59.727Z,100.00
2023-01-05T23:16:27.493Z,100.00
2023-01-05T23:18:55.190Z,100.00
2023-01-05T23:21:24.578Z,100.00
2023-01-05T23:23:53.222Z,100.00
2023-01-05T23:26:21.289Z,100.00
2023-01-05T23:28:49.527Z,100.00
2023-01-05T23:31:19.234Z,100.00
2023-01-05T23:33:47.842Z,100.00
2023-01-05T23:36:16.105Z,100.00
2023-01-05T23:38:43.743Z,100.00
2023-01-05T23:41:12.135Z,100.00
2023-01-05T23:43:40.166Z,100.00
2023-01-05T23:46:11.857Z,100.00
2023-01-05T23:48:39.651Z,100.00
2023-01-05T23:51:13.325Z,100.00
2023-01-05T23:53:44.850Z,100.00
2023-01-05T23:56:13.916Z,100.00
2023-01-05T23:58:42.629Z,100.00
